createdAt,value
2018-04-07T00:00:11.953Z,46.01
2018-04-07T00:01:12.175Z,46.11
2018-04-07T00:02:12.155Z,46.2
2018-04-07T00:03:12.124Z,46.2
2018-04-07T00:04:11.856Z,45.99
2018-04-07T00:05:11.830Z,46.3
2018-04-07T00:06:12.053Z,46.39
2018-04-07T00:07:11.779Z,46.18
2018-04-07T00:08:12.011Z,46.47
2018-04-07T00:09:11.978Z,46.84
2018-04-07T00:10:11.955Z,46.75
2018-04-07T00:11:11.931Z,46.75
2018-04-07T00:12:11.904Z,46.56
2018-04-07T00:13:11.633Z,47.04
2018-04-07T00:14:11.857Z,47.13
2018-04-07T00:15:11.832Z,47.04
2018-04-07T00:16:11.809Z,47.04
2018-04-07T00:17:11.537Z,47.13
2018-04-07T00:18:11.759Z,47.04
2018-04-07T00:19:11.487Z,46.94
2018-04-07T00:20:11.462Z,47.04
2018-04-07T00:21:11.437Z,46.84
2018-04-07T00:22:11.661Z,47.04
2018-04-07T00:23:11.634Z,47.04
2018-04-07T00:24:11.362Z,46.94
2018-04-07T00:25:11.587Z,47.23
2018-04-07T00:26:11.560Z,47.04
2018-04-07T00:27:11.543Z,47.23
2018-04-07T00:28:11.511Z,47.13
2018-04-07T00:29:11.485Z,46.84
2018-04-07T00:30:11.467Z,46.84
2018-04-07T00:31:11.442Z,46.94
2018-04-07T00:32:11.410Z,46.75
2018-04-07T00:33:11.388Z,47.13
2018-04-07T00:34:11.365Z,47.04
2018-04-07T00:35:11.337Z,46.66
2018-04-07T00:36:11.313Z,47.04
2018-04-07T00:37:11.289Z,46.94
2018-04-07T00:38:11.267Z,46.84
2018-04-07T00:39:11.237Z,47.04
2018-04-07T00:40:11.216Z,47.71
2018-04-07T00:41:11.197Z,47.52
2018-04-07T00:42:10.918Z,47.23
2018-04-07T00:43:11.138Z,47.61
2018-04-07T00:44:11.118Z,47.42
2018-04-07T00:45:11.093Z,47.61
2018-04-07T00:46:11.071Z,47.8
2018-04-07T00:47:11.046Z,47.8
2018-04-07T00:48:11.018Z,48.27
2018-04-07T00:49:10.745Z,48.37
2018-04-07T00:50:10.968Z,48.18
2018-04-07T00:51:10.945Z,48.27
2018-04-07T00:52:10.916Z,47.89
2018-04-07T00:53:10.894Z,48.18
2018-04-07T00:54:10.868Z,48.35
2018-04-07T00:55:10.842Z,48.18
2018-04-07T00:56:10.820Z,48.18
2018-04-07T00:57:10.794Z,48.37
2018-04-07T00:58:10.767Z,48.18
2018-04-07T00:59:10.744Z,48.18
2018-04-07T01:00:10.720Z,48.37
2018-04-07T01:01:10.697Z,48.27
2018-04-07T01:02:10.668Z,48.47
2018-04-07T01:03:10.394Z,48.08
2018-04-07T01:04:10.623Z,47.99
2018-04-07T01:05:10.595Z,47.99
2018-04-07T01:06:10.570Z,48.08
2018-04-07T01:07:10.545Z,48.37
2018-04-07T01:08:10.272Z,48.56
2018-04-07T01:09:10.495Z,48.08
2018-04-07T01:10:10.472Z,48.18
2018-04-07T01:11:10.444Z,48.08
2018-04-07T01:12:10.420Z,48.18
2018-04-07T01:13:10.395Z,48.27
2018-04-07T01:14:10.367Z,48.18
2018-04-07T01:15:10.343Z,47.8
2018-04-07T01:16:10.320Z,47.61
2018-04-07T01:17:10.292Z,47.8
2018-04-07T01:18:10.273Z,47.61
2018-04-07T01:19:10.249Z,47.61
2018-04-07T01:20:10.221Z,47.8
2018-04-07T01:21:10.197Z,47.71
2018-04-07T01:22:09.924Z,47.61
2018-04-07T01:23:10.147Z,47.71
2018-04-07T01:24:09.874Z,47.71
2018-04-07T01:25:09.851Z,47.61
2018-04-07T01:26:10.076Z,48.27
2018-04-07T01:27:10.049Z,48.47
2018-04-07T01:28:10.022Z,48.18
2018-04-07T01:29:09.754Z,48.18
2018-04-07T01:30:09.971Z,48.37
2018-04-07T01:31:09.953Z,48.08
2018-04-07T01:32:09.932Z,48.18
2018-04-07T01:33:09.901Z,48.18
2018-04-07T01:34:09.872Z,48.27
2018-04-07T01:35:09.852Z,48.27
2018-04-07T01:36:09.826Z,48.18
2018-04-07T01:37:09.804Z,48.08
2018-04-07T01:38:09.772Z,48.18
2018-04-07T01:39:09.748Z,48.18
2018-04-07T01:40:09.725Z,48.37
2018-04-07T01:41:09.704Z,47.99
2018-04-07T01:42:09.679Z,47.99
2018-04-07T01:43:09.654Z,48.18
2018-04-07T01:44:09.629Z,48.27
2018-04-07T01:45:09.608Z,48.18
2018-04-07T01:46:09.616Z,48.47
2018-04-07T01:47:09.549Z,48.47
2018-04-07T01:48:09.527Z,48.37
2018-04-07T01:49:09.502Z,48.56
2018-04-07T01:50:09.475Z,48.18
2018-04-07T01:51:09.452Z,48.27
2018-04-07T01:52:09.426Z,48.37
2018-04-07T01:53:09.404Z,48.37
2018-04-07T01:54:09.378Z,47.99
2018-04-07T01:55:09.361Z,48.75
2018-04-07T01:56:09.329Z,48.56
2018-04-07T01:57:09.303Z,48.56
2018-04-07T01:58:09.030Z,48.56
2018-04-07T01:59:09.250Z,48.37
2018-04-07T02:00:09.227Z,48.37
2018-04-07T02:01:09.202Z,48.37
2018-04-07T02:02:09.178Z,48.56
2018-04-07T02:03:09.153Z,48.47
2018-04-07T02:04:08.880Z,48.47
2018-04-07T02:05:09.104Z,48.27
2018-04-07T02:06:09.080Z,48.75
2018-04-07T02:07:09.056Z,48.75
2018-04-07T02:08:09.030Z,48.75
2018-04-07T02:09:09.003Z,48.75
2018-04-07T02:10:08.978Z,48.56
2018-04-07T02:11:08.954Z,49.04
2018-04-07T02:12:08.928Z,49.3
2018-04-07T02:13:08.656Z,48.82
2018-04-07T02:14:08.880Z,49.13
2018-04-07T02:15:08.853Z,49.11
2018-04-07T02:16:08.830Z,49.68
2018-04-07T02:17:08.808Z,49.68
2018-04-07T02:18:08.775Z,49.58
2018-04-07T02:19:08.752Z,49.68
2018-04-07T02:20:08.730Z,49.49
2018-04-07T02:21:08.705Z,49.4
2018-04-07T02:22:08.675Z,50.06
2018-04-07T02:23:08.404Z,49.77
2018-04-07T02:24:08.628Z,49.58
2018-04-07T02:25:08.605Z,49.96
2018-04-07T02:26:08.581Z,49.96
2018-04-07T02:27:08.304Z,49.87
2018-04-07T02:28:08.525Z,50.06
2018-04-07T02:29:08.253Z,50.15
2018-04-07T02:30:08.480Z,50.73
2018-04-07T02:31:08.204Z,50.15
2018-04-07T02:32:08.179Z,50.54
2018-04-07T02:33:08.399Z,50.54
2018-04-07T02:34:08.378Z,51.01
2018-04-07T02:35:08.103Z,51.01
2018-04-07T02:36:08.329Z,50.82
2018-04-07T02:37:08.298Z,50.82
2018-04-07T02:38:08.276Z,50.92
2018-04-07T02:39:08.252Z,50.73
2018-04-07T02:40:07.976Z,50.63
2018-04-07T02:41:08.052Z,50.82
2018-04-07T02:42:07.927Z,51.39
2018-04-07T02:43:08.208Z,51.39
2018-04-07T02:44:08.133Z,51.01
2018-04-07T02:45:08.100Z,51.2
2018-04-07T02:46:08.075Z,51.1
2018-04-07T02:47:08.054Z,51.1
2018-04-07T02:48:08.027Z,50.92
2018-04-07T02:49:07.998Z,51.39
2018-04-07T02:50:07.972Z,50.92
2018-04-07T02:51:07.947Z,50.73
2018-04-07T02:52:07.927Z,50.82
2018-04-07T02:53:07.904Z,50.73
2018-04-07T02:54:07.623Z,51.39
2018-04-07T02:55:07.845Z,51.2
2018-04-07T02:56:07.830Z,51.2
2018-04-07T02:57:07.545Z,50.73
2018-04-07T02:58:07.772Z,50.92
2018-04-07T02:59:07.743Z,51.3
2018-04-07T03:00:07.738Z,51.58
2018-04-07T03:01:07.448Z,51.3
2018-04-07T03:02:07.669Z,51.49
2018-04-07T03:03:07.648Z,51.01
2018-04-07T03:04:07.620Z,51.39
2018-04-07T03:05:07.602Z,51.58
2018-04-07T03:06:07.321Z,51.3
2018-04-07T03:07:07.552Z,52.15
2018-04-07T03:08:07.271Z,51.87
2018-04-07T03:09:07.493Z,51.78
2018-04-07T03:10:07.467Z,51.58
2018-04-07T03:11:07.440Z,51.97
2018-04-07T03:12:07.421Z,52.15
2018-04-07T03:13:07.143Z,52.13
2018-04-07T03:14:07.116Z,51.75
2018-04-07T03:15:07.339Z,52.7
2018-04-07T03:16:07.313Z,52.13
2018-04-07T03:17:07.289Z,52.51
2018-04-07T03:18:07.264Z,52.41
2018-04-07T03:19:07.237Z,52.7
2018-04-07T03:20:07.211Z,52.51
2018-04-07T03:21:06.939Z,52.98
2018-04-07T03:22:07.162Z,53.08
2018-04-07T03:23:07.136Z,53.46
2018-04-07T03:24:07.116Z,53.27
2018-04-07T03:25:07.087Z,53.27
2018-04-07T03:26:07.060Z,53.27
2018-04-07T03:27:06.787Z,53.55
2018-04-07T03:28:07.010Z,53.46
2018-04-07T03:29:06.984Z,53.55
2018-04-07T03:30:06.960Z,53.55
2018-04-07T03:31:06.683Z,53.27
2018-04-07T03:32:06.907Z,53.55
2018-04-07T03:33:06.881Z,53.36
2018-04-07T03:34:06.859Z,53.27
2018-04-07T03:35:06.830Z,53.46
2018-04-07T03:36:06.557Z,53.36
2018-04-07T03:37:06.777Z,53.46
2018-04-07T03:38:06.753Z,53.55
2018-04-07T03:39:06.476Z,52.98
2018-04-07T03:40:06.455Z,53.46
2018-04-07T03:41:06.431Z,53.17
2018-04-07T03:42:06.650Z,53.46
2018-04-07T03:43:06.628Z,53.55
2018-04-07T03:44:06.613Z,53.46
2018-04-07T03:45:06.573Z,53.36
2018-04-07T03:46:06.300Z,53.65
2018-04-07T03:47:06.277Z,53.55
2018-04-07T03:48:06.497Z,53.49
2018-04-07T03:49:06.468Z,53.27
2018-04-07T03:50:06.195Z,53.55
2018-04-07T03:51:06.424Z,53.17
2018-04-07T03:52:06.145Z,53.36
2018-04-07T03:53:06.120Z,53.39
2018-04-07T03:54:06.343Z,53.49
2018-04-07T03:55:06.319Z,53.36
2018-04-07T03:56:06.289Z,53.58
2018-04-07T03:57:06.269Z,53.39
2018-04-07T03:58:06.241Z,53.27
2018-04-07T03:59:06.217Z,53.55
2018-04-07T04:00:06.120Z,53.55
2018-04-07T04:01:05.915Z,53.36
2018-04-07T04:02:06.137Z,53.46
2018-04-07T04:03:06.114Z,53.46
2018-04-07T04:04:06.091Z,53.36
2018-04-07T04:05:06.066Z,53.65
2018-04-07T04:06:05.787Z,53.65
2018-04-07T04:07:06.013Z,53.49
2018-04-07T04:08:05.983Z,53.58
2018-04-07T04:09:05.965Z,53.39
2018-04-07T04:10:05.688Z,53.36
2018-04-07T04:11:05.663Z,53.87
2018-04-07T04:12:05.636Z,53.65
2018-04-07T04:13:05.862Z,53.65
2018-04-07T04:14:05.835Z,53.84
2018-04-07T04:15:05.812Z,53.67
2018-04-07T04:16:05.534Z,53.65
2018-04-07T04:17:05.756Z,53.84
2018-04-07T04:18:05.731Z,53.49
2018-04-07T04:19:05.705Z,53.65
2018-04-07T04:20:05.682Z,53.77
2018-04-07T04:21:05.655Z,53.65
2018-04-07T04:22:05.635Z,53.39
2018-04-07T04:23:05.359Z,53.65
2018-04-07T04:24:05.578Z,53.84
2018-04-07T04:25:05.561Z,54.13
2018-04-07T04:26:05.531Z,54.13
2018-04-07T04:27:05.503Z,53.94
2018-04-07T04:28:05.475Z,54.22
2018-04-07T04:29:05.204Z,54.22
2018-04-07T04:30:05.427Z,54.32
2018-04-07T04:31:05.399Z,54.6
2018-04-07T04:32:05.377Z,54.41
2018-04-07T04:33:05.352Z,54.22
2018-04-07T04:34:05.324Z,54.03
2018-04-07T04:35:05.301Z,54.32
2018-04-07T04:36:05.278Z,54.6
2018-04-07T04:37:04.999Z,54.6
2018-04-07T04:38:05.222Z,54.5
2018-04-07T04:39:05.197Z,55.17
2018-04-07T04:40:04.922Z,55.36
2018-04-07T04:41:04.894Z,55.08
2018-04-07T04:42:05.121Z,55.17
2018-04-07T04:43:04.845Z,55.08
2018-04-07T04:44:05.069Z,54.98
2018-04-07T04:45:05.041Z,55.08
2018-04-07T04:46:05.017Z,55.27
2018-04-07T04:47:04.746Z,55.36
2018-04-07T04:48:04.963Z,55.36
2018-04-07T04:49:04.692Z,55.36
2018-04-07T04:50:04.665Z,55.27
2018-04-07T04:51:04.640Z,55.27
2018-04-07T04:52:04.616Z,55.08
2018-04-07T04:53:04.843Z,54.98
2018-04-07T04:54:04.562Z,55.27
2018-04-07T04:55:04.838Z,55.36
2018-04-07T04:56:04.764Z,55.17
2018-04-07T04:57:04.486Z,55.08
2018-04-07T04:58:04.460Z,55.17
2018-04-07T04:59:04.684Z,55.83
2018-04-07T05:00:04.412Z,55.65
2018-04-07T05:01:04.631Z,55.74
2018-04-07T05:02:04.606Z,55.65
2018-04-07T05:03:04.583Z,55.55
2018-04-07T05:04:04.306Z,55.55
2018-04-07T05:05:04.531Z,55.55
2018-04-07T05:06:04.254Z,55.46
2018-04-07T05:07:04.228Z,55.65
2018-04-07T05:08:04.207Z,55.83
2018-04-07T05:09:04.426Z,55.65
2018-04-07T05:10:04.152Z,55.55
2018-04-07T05:11:04.124Z,55.55
2018-04-07T05:12:04.100Z,55.27
2018-04-07T05:13:04.073Z,54.89
2018-04-07T05:14:04.306Z,55.08
2018-04-07T05:15:04.268Z,54.98
2018-04-07T05:16:03.997Z,54.98
2018-04-07T05:17:03.968Z,54.79
2018-04-07T05:18:04.271Z,55.08
2018-04-07T05:19:04.179Z,55.08
2018-04-07T05:20:03.896Z,54.98
2018-04-07T05:21:04.117Z,54.79
2018-04-07T05:22:03.843Z,54.98
2018-04-07T05:23:04.063Z,54.98
2018-04-07T05:24:04.045Z,55.36
2018-04-07T05:25:04.015Z,55.08
2018-04-07T05:26:03.993Z,55.08
2018-04-07T05:27:03.715Z,55.27
2018-04-07T05:28:03.938Z,54.98
2018-04-07T05:29:03.916Z,55.08
2018-04-07T05:30:03.640Z,55.17
2018-04-07T05:31:03.868Z,55.36
2018-04-07T05:32:03.839Z,55.49
2018-04-07T05:33:03.812Z,54.69
2018-04-07T05:34:03.797Z,54.69
2018-04-07T05:35:03.763Z,54.44
2018-04-07T05:36:03.485Z,54.53
2018-04-07T05:37:03.461Z,54.25
2018-04-07T05:38:03.694Z,54.72
2018-04-07T05:39:03.410Z,54.25
2018-04-07T05:40:03.385Z,54.63
2018-04-07T05:41:03.609Z,54.25
2018-04-07T05:42:03.584Z,54.25
2018-04-07T05:43:03.560Z,54.63
2018-04-07T05:44:03.534Z,54.35
2018-04-07T05:45:03.514Z,54.25
2018-04-07T05:46:03.484Z,54.06
2018-04-07T05:47:03.459Z,54.06
2018-04-07T05:48:03.433Z,54.25
2018-04-07T05:49:03.408Z,54.15
2018-04-07T05:50:03.383Z,53.67
2018-04-07T05:51:03.362Z,53.77
2018-04-07T05:52:03.084Z,53.77
2018-04-07T05:53:03.357Z,53.67
2018-04-07T05:54:03.282Z,53.39
2018-04-07T05:55:03.259Z,53.67
2018-04-07T05:56:02.986Z,53.77
2018-04-07T05:57:02.964Z,53.58
2018-04-07T05:58:03.190Z,53.67
2018-04-07T05:59:03.170Z,53.67
2018-04-07T06:00:03.137Z,53.58
2018-04-07T06:01:03.111Z,53.96
2018-04-07T06:02:02.841Z,53.58
2018-04-07T06:03:02.816Z,53.52
2018-04-07T06:04:03.040Z,53.39
2018-04-07T06:05:03.016Z,53.61
2018-04-07T06:06:02.990Z,53.23
2018-04-07T06:07:02.966Z,53.13
2018-04-07T06:08:02.943Z,52.84
2018-04-07T06:09:02.922Z,52.66
2018-04-07T06:10:02.896Z,52.47
2018-04-07T06:11:02.870Z,52.56
2018-04-07T06:12:02.851Z,52.66
2018-04-07T06:13:02.827Z,51.99
2018-04-07T06:14:02.549Z,51.89
2018-04-07T06:15:02.770Z,52.01
2018-04-07T06:16:02.749Z,51.89
2018-04-07T06:17:02.728Z,51.82
2018-04-07T06:18:02.453Z,51.92
2018-04-07T06:19:02.678Z,51.16
2018-04-07T06:20:02.656Z,51.45
2018-04-07T06:21:02.636Z,51.25
2018-04-07T06:22:02.608Z,51.64
2018-04-07T06:23:02.582Z,51.06
2018-04-07T06:24:02.560Z,50.78
2018-04-07T06:25:02.538Z,50.78
2018-04-07T06:26:02.523Z,50.8
2018-04-07T06:27:02.488Z,50.13
2018-04-07T06:28:02.216Z,49.66
2018-04-07T06:29:02.442Z,49.66
2018-04-07T06:30:02.418Z,49.76
2018-04-07T06:31:02.399Z,49.76
2018-04-07T06:32:02.407Z,49.76
2018-04-07T06:33:02.350Z,49.66
2018-04-07T06:34:02.075Z,49.18
2018-04-07T06:35:02.303Z,48.9
2018-04-07T06:36:02.280Z,49.49
2018-04-07T06:37:02.257Z,48.63
2018-04-07T06:38:02.242Z,48.73
2018-04-07T06:39:02.210Z,48.25
2018-04-07T06:40:02.187Z,48.63
2018-04-07T06:41:02.166Z,48.35
2018-04-07T06:42:01.942Z,48.25
2018-04-07T06:43:02.119Z,48.25
2018-04-07T06:44:02.103Z,48.07
2018-04-07T06:45:02.076Z,47.87
2018-04-07T06:46:02.051Z,47.87
2018-04-07T06:47:02.038Z,47.68
2018-04-07T06:48:02.040Z,47.49
2018-04-07T06:49:01.993Z,47.58
2018-04-07T06:50:02.059Z,47.39
2018-04-07T06:51:01.958Z,47.2
2018-04-07T06:52:01.923Z,47.58
2018-04-07T06:53:01.890Z,46.75
2018-04-07T06:54:01.871Z,46.75
2018-04-07T06:55:01.885Z,47.03
2018-04-07T06:56:01.825Z,46.47
2018-04-07T06:57:01.807Z,46.84
2018-04-07T06:58:01.532Z,47.03
2018-04-07T06:59:01.513Z,46.18
2018-04-07T07:00:01.736Z,46.37
2018-04-07T07:01:01.717Z,45.89
2018-04-07T07:02:01.698Z,46.08
2018-04-07T07:03:01.670Z,45.89
2018-04-07T07:04:01.648Z,45.89
2018-04-07T07:05:01.632Z,45.72
2018-04-07T07:06:01.357Z,45.82
2018-04-07T07:07:01.584Z,45.43
2018-04-07T07:08:01.561Z,45.06
2018-04-07T07:09:01.613Z,44.96
2018-04-07T07:10:01.521Z,44.96
2018-04-07T07:11:01.492Z,44.96
2018-04-07T07:12:01.475Z,44.58
2018-04-07T07:13:01.204Z,44.48
2018-04-07T07:14:01.429Z,44.67
2018-04-07T07:15:01.417Z,44.38
2018-04-07T07:16:01.385Z,44.38
2018-04-07T07:17:01.118Z,44.02
2018-04-07T07:18:01.344Z,44.1
2018-04-07T07:19:01.325Z,44.02
2018-04-07T07:20:01.298Z,44.12
2018-04-07T07:21:01.280Z,43.74
2018-04-07T07:22:01.008Z,43.84
2018-04-07T07:23:00.989Z,43.74
2018-04-07T07:24:01.226Z,43.17
2018-04-07T07:25:01.199Z,43.46
2018-04-07T07:26:01.173Z,43.26
2018-04-07T07:27:01.156Z,43.17
2018-04-07T07:28:01.133Z,43.09
2018-04-07T07:29:00.864Z,43.19
2018-04-07T07:30:01.090Z,43
2018-04-07T07:31:01.076Z,43.09
2018-04-07T07:32:01.052Z,42.71
2018-04-07T07:33:01.032Z,42.81
2018-04-07T07:34:01.013Z,42.71
2018-04-07T07:35:00.993Z,42.14
2018-04-07T07:36:00.969Z,42.24
2018-04-07T07:37:00.951Z,41.85
2018-04-07T07:38:00.931Z,41.75
2018-04-07T07:39:00.911Z,41.75
2018-04-07T07:40:00.886Z,41.47
2018-04-07T07:41:00.870Z,41.66
2018-04-07T07:42:00.999Z,41.3
2018-04-07T07:43:00.829Z,41.66
2018-04-07T07:44:00.809Z,41.01
2018-04-07T07:45:00.788Z,41.3
2018-04-07T07:46:00.812Z,40.92
2018-04-07T07:47:00.505Z,40.82
2018-04-07T07:48:00.477Z,40.82
2018-04-07T07:49:00.707Z,40.82
2018-04-07T07:50:00.690Z,40.53
2018-04-07T07:51:00.666Z,40.25
2018-04-07T07:52:00.651Z,40.15
2018-04-07T07:53:00.625Z,40.44
2018-04-07T07:54:00.605Z,40.55
2018-04-07T07:55:00.586Z,39.96
2018-04-07T07:56:00.565Z,39.98
2018-04-07T07:57:00.544Z,39.79
2018-04-07T07:58:00.525Z,40.36
2018-04-07T07:59:00.552Z,40.26
2018-04-07T08:00:00.533Z,39.89
2018-04-07T08:01:00.464Z,39.6
2018-04-07T08:02:00.453Z,39.4
2018-04-07T08:03:00.425Z,39.31
2018-04-07T08:04:00.404Z,39.22
2018-04-07T08:05:00.269Z,39.22
2018-04-07T08:06:00.364Z,39.22
2018-04-07T08:07:00.355Z,39.03
2018-04-07T08:08:00.326Z,38.74
2018-04-07T08:09:00.303Z,38.54
2018-04-07T08:10:00.037Z,38.47
2018-04-07T08:11:00.264Z,38.56
2018-04-07T08:12:00.490Z,38.56
2018-04-07T08:13:00.225Z,38.56
2018-04-07T08:14:00.206Z,38.47
2018-04-07T08:15:00.187Z,38.28
2018-04-07T08:16:00.167Z,37.99
2018-04-07T08:17:00.148Z,37.8
2018-04-07T08:18:00.128Z,37.8
2018-04-07T08:19:00.110Z,37.41
2018-04-07T08:20:00.092Z,37.24
2018-04-07T08:20:59.821Z,37.53
2018-04-07T08:22:00.051Z,37.34
2018-04-07T08:23:00.029Z,37.24
2018-04-07T08:23:59.762Z,37.15
2018-04-07T08:24:59.991Z,37.05
2018-04-07T08:25:59.974Z,37.05
2018-04-07T08:26:59.955Z,36.77
2018-04-07T08:27:59.942Z,36.86
2018-04-07T08:28:59.916Z,36.67
2018-04-07T08:29:59.647Z,36.57
2018-04-07T08:30:59.876Z,36.38
2018-04-07T08:31:59.897Z,36.1
2018-04-07T08:32:59.842Z,36.29
2018-04-07T08:33:59.815Z,36.21
2018-04-07T08:34:59.800Z,35.92
2018-04-07T08:35:59.781Z,35.83
2018-04-07T08:36:59.761Z,35.92
2018-04-07T08:37:59.743Z,36.02
2018-04-07T08:38:59.722Z,35.83
2018-04-07T08:39:59.705Z,35.83
2018-04-07T08:40:59.683Z,35.35
2018-04-07T08:41:59.668Z,34.87
2018-04-07T08:42:59.653Z,34.87
2018-04-07T08:43:59.384Z,34.79
2018-04-07T08:44:59.612Z,34.59
2018-04-07T08:45:59.592Z,34.79
2018-04-07T08:46:59.578Z,34.41
2018-04-07T08:47:59.554Z,34.69
2018-04-07T08:48:59.533Z,34.41
2018-04-07T08:49:59.524Z,34.5
2018-04-07T08:50:59.505Z,34.04
2018-04-07T08:51:59.481Z,33.75
2018-04-07T08:52:59.214Z,34.23
2018-04-07T08:53:59.447Z,34.33
2018-04-07T08:54:59.429Z,34.23
2018-04-07T08:55:59.409Z,33.84
2018-04-07T08:56:59.387Z,33.84
2018-04-07T08:57:59.124Z,33.94
2018-04-07T08:58:59.352Z,33.75
2018-04-07T08:59:59.333Z,33.17
2018-04-07T09:00:59.610Z,33.39
2018-04-07T09:01:59.299Z,33.17
2018-04-07T09:02:59.284Z,33
2018-04-07T09:03:59.258Z,32.9
2018-04-07T09:04:59.242Z,32.81
2018-04-07T09:05:58.977Z,32.71
2018-04-07T09:06:59.215Z,32.52
2018-04-07T09:07:59.227Z,32.62
2018-04-07T09:08:59.174Z,32.42
2018-04-07T09:09:59.154Z,32.33
2018-04-07T09:10:59.138Z,32.33
2018-04-07T09:11:59.122Z,32.14
2018-04-07T09:12:59.103Z,32.15
2018-04-07T09:13:59.081Z,32.06
2018-04-07T09:14:59.069Z,32.06
2018-04-07T09:15:59.048Z,31.96
2018-04-07T09:16:59.032Z,31.87
2018-04-07T09:17:59.013Z,31.87
2018-04-07T09:18:58.996Z,31.96
2018-04-07T09:19:58.979Z,31.87
2018-04-07T09:20:58.963Z,31.67
2018-04-07T09:21:58.953Z,31.69
2018-04-07T09:22:58.931Z,31.69
2018-04-07T09:23:58.663Z,31.3
2018-04-07T09:24:58.890Z,31.21
2018-04-07T09:25:58.884Z,31.02
2018-04-07T09:26:58.859Z,30.73
2018-04-07T09:27:58.840Z,30.63
2018-04-07T09:28:58.824Z,30.92
2018-04-07T09:29:58.558Z,30.73
2018-04-07T09:30:58.792Z,31.02
2018-04-07T09:31:58.771Z,30.44
2018-04-07T09:32:58.756Z,30.44
2018-04-07T09:33:58.742Z,30.05
2018-04-07T09:34:58.723Z,30.46
2018-04-07T09:35:58.707Z,30.26
2018-04-07T09:36:58.446Z,30.36
2018-04-07T09:37:58.674Z,29.88
2018-04-07T09:38:58.655Z,29.59
2018-04-07T09:39:58.638Z,29.69
2018-04-07T09:40:58.627Z,29.4
2018-04-07T09:41:58.605Z,29.59
2018-04-07T09:42:58.597Z,29.69
2018-04-07T09:43:58.572Z,29.4
2018-04-07T09:44:58.552Z,29.51
2018-04-07T09:45:58.545Z,29.22
2018-04-07T09:46:58.529Z,29.13
2018-04-07T09:47:58.509Z,29.13
2018-04-07T09:48:58.490Z,28.26
2018-04-07T09:49:58.223Z,28.36
2018-04-07T09:50:58.546Z,28.45
2018-04-07T09:51:58.442Z,28.45
2018-04-07T09:52:58.445Z,28.07
2018-04-07T09:53:58.407Z,28.26
2018-04-07T09:54:58.389Z,28.07
2018-04-07T09:55:58.373Z,28.36
2018-04-07T09:56:58.357Z,27.59
2018-04-07T09:57:58.342Z,27.78
2018-04-07T09:58:58.325Z,27.8
2018-04-07T09:59:58.305Z,27.69
2018-04-07T10:00:58.291Z,27.59
2018-04-07T10:01:58.277Z,27.5
2018-04-07T10:02:58.259Z,27.4
2018-04-07T10:03:58.246Z,27.02
2018-04-07T10:04:58.229Z,27.02
2018-04-07T10:05:57.963Z,26.83
2018-04-07T10:06:58.201Z,26.64
2018-04-07T10:07:58.181Z,26.54
2018-04-07T10:08:58.168Z,26.35
2018-04-07T10:09:57.899Z,26.65
2018-04-07T10:10:58.134Z,25.88
2018-04-07T10:11:58.117Z,25.79
2018-04-07T10:12:58.112Z,25.69
2018-04-07T10:13:57.953Z,25.69
2018-04-07T10:14:58.073Z,25.49
2018-04-07T10:15:58.052Z,25.49
2018-04-07T10:16:58.040Z,25.31
2018-04-07T10:17:58.022Z,24.73
2018-04-07T10:18:57.758Z,25.31
2018-04-07T10:19:57.993Z,25.02
2018-04-07T10:20:57.972Z,24.55
2018-04-07T10:21:57.958Z,24.45
2018-04-07T10:22:57.952Z,24.16
2018-04-07T10:23:57.932Z,23.87
2018-04-07T10:24:57.913Z,24.16
2018-04-07T10:25:57.900Z,24.35
2018-04-07T10:26:57.883Z,24.35
2018-04-07T10:27:57.870Z,24.18
2018-04-07T10:28:57.605Z,23.88
2018-04-07T10:29:57.852Z,23.79
2018-04-07T10:30:57.574Z,23.88
2018-04-07T10:31:57.805Z,23.4
2018-04-07T10:32:57.790Z,23.4
2018-04-07T10:33:57.773Z,23.4
2018-04-07T10:34:57.761Z,23.22
2018-04-07T10:35:57.751Z,23.02
2018-04-07T10:36:57.484Z,23.13
2018-04-07T10:37:57.715Z,22.74
2018-04-07T10:38:57.700Z,22.93
2018-04-07T10:39:57.694Z,22.64
2018-04-07T10:40:57.670Z,22.55
2018-04-07T10:41:57.659Z,22.45
2018-04-07T10:42:57.644Z,22.45
2018-04-07T10:43:57.381Z,22.16
2018-04-07T10:44:57.615Z,21.97
2018-04-07T10:45:57.597Z,21.58
2018-04-07T10:46:57.583Z,21.69
2018-04-07T10:47:57.567Z,21.88
2018-04-07T10:48:57.559Z,21.5
2018-04-07T10:49:57.584Z,21.59
2018-04-07T10:50:57.531Z,21.79
2018-04-07T10:51:57.513Z,21.79
2018-04-07T10:52:57.496Z,21.79
2018-04-07T10:53:57.484Z,21.4
2018-04-07T10:54:57.220Z,21.5
2018-04-07T10:55:57.456Z,21.5
2018-04-07T10:56:57.440Z,21.69
2018-04-07T10:57:57.431Z,21.59
2018-04-07T10:58:58.420Z,21.4
2018-04-07T10:59:57.428Z,21.79
2018-04-07T11:00:57.386Z,21.69
2018-04-07T11:01:57.372Z,21.41
2018-04-07T11:02:58.073Z,21.31
2018-04-07T11:03:57.487Z,21.31
2018-04-07T11:04:57.079Z,21.7
2018-04-07T11:05:57.315Z,21.51
2018-04-07T11:06:57.299Z,21.31
2018-04-07T11:07:57.285Z,21.31
2018-04-07T11:08:57.271Z,21.03
2018-04-07T11:09:57.258Z,21.12
2018-04-07T11:10:57.243Z,21.41
2018-04-07T11:11:57.233Z,21.22
2018-04-07T11:12:56.968Z,20.84
2018-04-07T11:13:56.952Z,21.13
2018-04-07T11:14:57.186Z,20.84
2018-04-07T11:15:57.175Z,20.94
2018-04-07T11:16:57.160Z,20.84
2018-04-07T11:17:57.147Z,20.56
2018-04-07T11:18:57.134Z,20.26
2018-04-07T11:19:57.119Z,20.46
2018-04-07T11:20:57.103Z,20.46
2018-04-07T11:21:57.095Z,20.46
2018-04-07T11:22:57.078Z,19.88
2018-04-07T11:23:57.066Z,20.26
2018-04-07T11:24:57.053Z,20.18
2018-04-07T11:25:57.038Z,20.08
2018-04-07T11:26:57.026Z,20.08
2018-04-07T11:27:57.010Z,20.18
2018-04-07T11:28:57.000Z,20.28
2018-04-07T11:29:57.248Z,19.79
2018-04-07T11:30:57.023Z,19.79
2018-04-07T11:31:57.084Z,20.19
2018-04-07T11:32:56.946Z,20.08
2018-04-07T11:33:56.930Z,20.09
2018-04-07T11:34:56.670Z,19.9
2018-04-07T11:35:56.905Z,19.8
2018-04-07T11:36:56.892Z,19.51
2018-04-07T11:37:56.630Z,19.42
2018-04-07T11:38:56.868Z,19.51
2018-04-07T11:39:56.851Z,19.42
2018-04-07T11:40:56.841Z,19.42
2018-04-07T11:41:56.826Z,19.51
2018-04-07T11:42:56.816Z,19.51
2018-04-07T11:43:56.799Z,19.61
2018-04-07T11:44:56.538Z,19.12
2018-04-07T11:45:56.776Z,19.7
2018-04-07T11:46:56.764Z,19.12
2018-04-07T11:47:56.755Z,19.42
2018-04-07T11:48:56.487Z,19.23
2018-04-07T11:49:56.576Z,19.33
2018-04-07T11:50:56.713Z,19.04
2018-04-07T11:51:56.698Z,18.85
2018-04-07T11:52:56.688Z,18.94
2018-04-07T11:53:56.673Z,18.85
2018-04-07T11:54:56.661Z,18.94
2018-04-07T11:55:56.650Z,18.55
2018-04-07T11:56:56.388Z,18.55
2018-04-07T11:57:56.625Z,18.55
2018-04-07T11:58:56.616Z,18.65
2018-04-07T11:59:56.602Z,18.36
2018-04-07T12:00:56.338Z,18.07
2018-04-07T12:01:56.576Z,17.78
2018-04-07T12:02:56.566Z,17.88
2018-04-07T12:03:56.548Z,17.3
2018-04-07T12:04:56.538Z,17.2
2018-04-07T12:05:56.522Z,17.3
2018-04-07T12:06:56.520Z,17.3
2018-04-07T12:07:56.497Z,17.49
2018-04-07T12:08:56.488Z,17.68
2018-04-07T12:09:56.227Z,17.69
2018-04-07T12:10:56.214Z,17.11
2018-04-07T12:11:56.449Z,17.31
2018-04-07T12:12:56.437Z,17.31
2018-04-07T12:13:56.423Z,17.2
2018-04-07T12:14:56.513Z,17.68
2018-04-07T12:15:56.505Z,17.68
2018-04-07T12:16:56.142Z,17.69
2018-04-07T12:17:56.384Z,17.79
2018-04-07T12:18:56.388Z,17.89
2018-04-07T12:19:56.353Z,17.98
2018-04-07T12:20:56.340Z,17.69
2018-04-07T12:21:56.326Z,18.08
2018-04-07T12:22:56.319Z,18.08
2018-04-07T12:23:56.057Z,17.98
2018-04-07T12:24:56.296Z,18.18
2018-04-07T12:25:56.281Z,17.79
2018-04-07T12:26:56.271Z,17.89
2018-04-07T12:27:56.015Z,17.98
2018-04-07T12:28:56.274Z,18.09
2018-04-07T12:29:56.241Z,17.9
2018-04-07T12:30:55.979Z,17.9
2018-04-07T12:31:56.217Z,17.9
2018-04-07T12:32:56.213Z,17.8
2018-04-07T12:33:56.267Z,17.8
2018-04-07T12:34:56.184Z,17.7
2018-04-07T12:35:56.178Z,17.7
2018-04-07T12:36:56.161Z,17.8
2018-04-07T12:37:56.152Z,17.9
2018-04-07T12:38:56.133Z,17.99
2018-04-07T12:39:56.125Z,17.9
2018-04-07T12:40:56.117Z,18.09
2018-04-07T12:41:56.110Z,18.19
2018-04-07T12:42:56.092Z,17.99
2018-04-07T12:43:55.832Z,18.29
2018-04-07T12:44:56.066Z,18.1
2018-04-07T12:45:56.058Z,18.1
2018-04-07T12:46:56.045Z,17.9
2018-04-07T12:47:56.041Z,18.1
2018-04-07T12:48:56.022Z,18.1
2018-04-07T12:49:55.862Z,18
2018-04-07T12:50:55.998Z,17.9
2018-04-07T12:51:55.988Z,18.1
2018-04-07T12:52:55.979Z,17.9
2018-04-07T12:53:55.973Z,18
2018-04-07T12:54:55.952Z,17.71